sensor_id;sensor_type;location;lat;lon;timestamp;P1;durP1;ratioP1;P2;durP2;ratioP2
29700;SDS011;57917;51.380;-0.176;2022-08-19T00:09:24;2.20;;;1.10;;
29700;SDS011;57917;51.380;-0.176;2022-08-19T00:32:55;4.90;;;1.27;;
29700;SDS011;57917;51.380;-0.176;2022-08-19T00:45:56;6.28;;;1.63;;
29700;SDS011;57917;51.380;-0.176;2022-08-19T00:51:44;4.15;;;1.67;;
29700;SDS011;57917;51.380;-0.176;2022-08-19T00:57:35;3.10;;;1.50;;
29700;SDS011;57917;51.380;-0.176;2022-08-19T01:03:26;2.85;;;1.42;;
29700;SDS011;57917;51.380;-0.176;2022-08-19T01:09:13;5.05;;;1.50;;
29700;SDS011;57917;51.380;-0.176;2022-08-19T01:15:03;3.00;;;1.60;;
29700;SDS011;57917;51.380;-0.176;2022-08-19T01:20:52;2.78;;;1.30;;
29700;SDS011;57917;51.380;-0.176;2022-08-19T01:26:44;4.27;;;1.23;;
29700;SDS011;57917;51.380;-0.176;2022-08-19T01:32:32;3.53;;;1.50;;
29700;SDS011;57917;51.380;-0.176;2022-08-19T01:38:25;2.60;;;1.38;;
29700;SDS011;57917;51.380;-0.176;2022-08-19T01:44:13;3.38;;;1.70;;
29700;SDS011;57917;51.380;-0.176;2022-08-19T01:50:09;1.50;;;0.98;;
29700;SDS011;57917;51.380;-0.176;2022-08-19T01:55:57;2.60;;;1.20;;
29700;SDS011;57917;51.380;-0.176;2022-08-19T02:01:51;5.22;;;1.30;;
29700;SDS011;57917;51.380;-0.176;2022-08-19T02:07:41;1.35;;;0.80;;
29700;SDS011;57917;51.380;-0.176;2022-08-19T02:13:28;5.50;;;1.08;;
29700;SDS011;57917;51.380;-0.176;2022-08-19T02:19:15;2.67;;;1.13;;
29700;SDS011;57917;51.380;-0.176;2022-08-19T02:25:03;9.60;;;1.00;;
29700;SDS011;57917;51.380;-0.176;2022-08-19T02:30:51;3.33;;;1.20;;
29700;SDS011;57917;51.380;-0.176;2022-08-19T02:36:39;3.33;;;1.38;;
29700;SDS011;57917;51.380;-0.176;2022-08-19T02:42:28;1.10;;;0.90;;
29700;SDS011;57917;51.380;-0.176;2022-08-19T02:48:18;3.78;;;1.08;;
29700;SDS011;57917;51.380;-0.176;2022-08-19T02:59:57;2.05;;;1.10;;
29700;SDS011;57917;51.380;-0.176;2022-08-19T03:05:45;4.03;;;1.15;;
29700;SDS011;57917;51.380;-0.176;2022-08-19T03:11:43;4.80;;;1.30;;
29700;SDS011;57917;51.380;-0.176;2022-08-19T03:17:30;8.05;;;1.45;;
29700;SDS011;57917;51.380;-0.176;2022-08-19T03:23:18;1.95;;;1.33;;
29700;SDS011;57917;51.380;-0.176;2022-08-19T03:29:05;2.85;;;1.52;;
29700;SDS011;57917;51.380;-0.176;2022-08-19T03:34:54;1.50;;;0.95;;
29700;SDS011;57917;51.380;-0.176;2022-08-19T03:40:40;3.25;;;1.33;;
29700;SDS011;57917;51.380;-0.176;2022-08-19T03:46:29;3.00;;;1.25;;
29700;SDS011;57917;51.380;-0.176;2022-08-19T03:52:18;1.73;;;0.88;;
29700;SDS011;57917;51.380;-0.176;2022-08-19T03:58:06;3.15;;;1.33;;
29700;SDS011;57917;51.380;-0.176;2022-08-19T04:03:53;2.92;;;1.58;;
29700;SDS011;57917;51.380;-0.176;2022-08-19T04:09:41;1.80;;;1.10;;
29700;SDS011;57917;51.380;-0.176;2022-08-19T04:15:28;7.35;;;1.13;;
29700;SDS011;57917;51.380;-0.176;2022-08-19T04:21:18;3.92;;;1.17;;
29700;SDS011;57917;51.380;-0.176;2022-08-19T04:27:06;7.13;;;1.20;;
29700;SDS011;57917;51.380;-0.176;2022-08-19T04:32:56;2.38;;;1.20;;
29700;SDS011;57917;51.380;-0.176;2022-08-19T04:38:43;2.65;;;1.05;;
29700;SDS011;57917;51.380;-0.176;2022-08-19T04:44:30;6.25;;;1.50;;
29700;SDS011;57917;51.380;-0.176;2022-08-19T04:50:20;4.55;;;1.70;;
29700;SDS011;57917;51.380;-0.176;2022-08-19T04:56:13;7.45;;;1.85;;
29700;SDS011;57917;51.380;-0.176;2022-08-19T05:02:02;3.08;;;1.38;;
29700;SDS011;57917;51.380;-0.176;2022-08-19T05:07:50;3.33;;;1.17;;
29700;SDS011;57917;51.380;-0.176;2022-08-19T05:13:39;3.72;;;1.15;;
29700;SDS011;57917;51.380;-0.176;2022-08-19T05:19:27;1.27;;;0.75;;
29700;SDS011;57917;51.380;-0.176;2022-08-19T05:25:34;5.75;;;1.75;;
29700;SDS011;57917;51.380;-0.176;2022-08-19T05:31:21;1.45;;;0.88;;
29700;SDS011;57917;51.380;-0.176;2022-08-19T05:37:08;1.92;;;0.70;;
29700;SDS011;57917;51.380;-0.176;2022-08-19T05:42:55;2.55;;;1.15;;
29700;SDS011;57917;51.380;-0.176;2022-08-19T05:48:42;1.75;;;0.50;;
29700;SDS011;57917;51.380;-0.176;2022-08-19T05:54:29;1.83;;;0.52;;
29700;SDS011;57917;51.380;-0.176;2022-08-19T06:00:16;1.00;;;0.38;;
29700;SDS011;57917;51.380;-0.176;2022-08-19T06:06:10;3.22;;;1.15;;
29700;SDS011;57917;51.380;-0.176;2022-08-19T06:11:59;1.70;;;0.40;;
29700;SDS011;57917;51.380;-0.176;2022-08-19T06:17:47;1.00;;;0.38;;
29700;SDS011;57917;51.380;-0.176;2022-08-19T06:23:34;1.42;;;0.40;;
29700;SDS011;57917;51.380;-0.176;2022-08-19T06:29:24;1.25;;;0.70;;
29700;SDS011;57917;51.380;-0.176;2022-08-19T06:35:12;1.17;;;0.43;;
29700;SDS011;57917;51.380;-0.176;2022-08-19T06:41:03;0.30;;;0.30;;
29700;SDS011;57917;51.380;-0.176;2022-08-19T06:46:56;1.33;;;0.50;;
29700;SDS011;57917;51.380;-0.176;2022-08-19T06:52:43;0.82;;;0.63;;
29700;SDS011;57917;51.380;-0.176;2022-08-19T06:58:30;0.45;;;0.30;;
29700;SDS011;57917;51.380;-0.176;2022-08-19T07:04:25;1.98;;;0.43;;
29700;SDS011;57917;51.380;-0.176;2022-08-19T07:10:27;0.63;;;0.43;;
29700;SDS011;57917;51.380;-0.176;2022-08-19T07:16:17;0.85;;;0.32;;
29700;SDS011;57917;51.380;-0.176;2022-08-19T07:22:16;5.18;;;0.45;;
29700;SDS011;57917;51.380;-0.176;2022-08-19T07:28:04;1.10;;;0.45;;
29700;SDS011;57917;51.380;-0.176;2022-08-19T07:34:11;3.78;;;0.50;;
29700;SDS011;57917;51.380;-0.176;2022-08-19T07:40:03;0.95;;;0.30;;
29700;SDS011;57917;51.380;-0.176;2022-08-19T07:46:00;5.25;;;1.40;;
29700;SDS011;57917;51.380;-0.176;2022-08-19T07:51:56;0.90;;;0.40;;
29700;SDS011;57917;51.380;-0.176;2022-08-19T07:57:50;6.72;;;0.80;;
29700;SDS011;57917;51.380;-0.176;2022-08-19T08:03:40;2.80;;;0.50;;
29700;SDS011;57917;51.380;-0.176;2022-08-19T08:09:47;1.38;;;0.38;;
29700;SDS011;57917;51.380;-0.176;2022-08-19T08:15:36;0.52;;;0.20;;
29700;SDS011;57917;51.380;-0.176;2022-08-19T08:21:31;1.27;;;0.45;;
29700;SDS011;57917;51.380;-0.176;2022-08-19T08:27:19;2.97;;;0.70;;
29700;SDS011;57917;51.380;-0.176;2022-08-19T08:33:22;0.73;;;0.38;;
29700;SDS011;57917;51.380;-0.176;2022-08-19T08:46:12;3.20;;;0.50;;
29700;SDS011;57917;51.380;-0.176;2022-08-19T08:52:53;1.38;;;0.30;;
29700;SDS011;57917;51.380;-0.176;2022-08-19T09:04:42;1.10;;;0.75;;
29700;SDS011;57917;51.380;-0.176;2022-08-19T09:10:39;2.90;;;0.82;;
29700;SDS011;57917;51.380;-0.176;2022-08-19T09:16:52;5.25;;;0.70;;
29700;SDS011;57917;51.380;-0.176;2022-08-19T09:22:40;4.20;;;0.70;;
29700;SDS011;57917;51.380;-0.176;2022-08-19T09:28:33;4.60;;;0.80;;
29700;SDS011;57917;51.380;-0.176;2022-08-19T09:34:24;3.70;;;0.73;;
29700;SDS011;57917;51.380;-0.176;2022-08-19T09:40:12;4.03;;;0.60;;
29700;SDS011;57917;51.380;-0.176;2022-08-19T09:46:01;2.67;;;0.77;;
29700;SDS011;57917;51.380;-0.176;2022-08-19T09:51:52;5.47;;;0.40;;
29700;SDS011;57917;51.380;-0.176;2022-08-19T09:57:42;2.60;;;0.55;;
29700;SDS011;57917;51.380;-0.176;2022-08-19T10:03:52;4.57;;;0.57;;
29700;SDS011;57917;51.380;-0.176;2022-08-19T10:10:35;2.17;;;0.77;;
29700;SDS011;57917;51.380;-0.176;2022-08-19T10:16:28;1.55;;;0.38;;
29700;SDS011;57917;51.380;-0.176;2022-08-19T10:22:43;2.55;;;0.93;;
29700;SDS011;57917;51.380;-0.176;2022-08-19T10:28:32;3.25;;;0.70;;
29700;SDS011;57917;51.380;-0.176;2022-08-19T10:41:39;3.42;;;0.77;;
29700;SDS011;57917;51.380;-0.176;2022-08-19T10:54:15;1.13;;;0.57;;
29700;SDS011;57917;51.380;-0.176;2022-08-19T11:00:19;5.47;;;0.98;;
29700;SDS011;57917;51.380;-0.176;2022-08-19T11:06:07;1.85;;;0.52;;
29700;SDS011;57917;51.380;-0.176;2022-08-19T11:12:00;7.57;;;0.68;;
29700;SDS011;57917;51.380;-0.176;2022-08-19T11:17:56;5.75;;;1.08;;
29700;SDS011;57917;51.380;-0.176;2022-08-19T11:23:43;4.35;;;1.00;;
29700;SDS011;57917;51.380;-0.176;2022-08-19T11:29:40;6.18;;;1.00;;
29700;SDS011;57917;51.380;-0.176;2022-08-19T11:35:38;4.43;;;1.02;;
29700;SDS011;57917;51.380;-0.176;2022-08-19T11:41:29;7.80;;;1.30;;
29700;SDS011;57917;51.380;-0.176;2022-08-19T11:47:16;8.27;;;1.70;;
29700;SDS011;57917;51.380;-0.176;2022-08-19T11:53:03;5.40;;;1.15;;
29700;SDS011;57917;51.380;-0.176;2022-08-19T11:58:51;3.05;;;1.15;;
29700;SDS011;57917;51.380;-0.176;2022-08-19T12:04:39;6.75;;;1.13;;
29700;SDS011;57917;51.380;-0.176;2022-08-19T12:24:18;5.25;;;1.10;;
29700;SDS011;57917;51.380;-0.176;2022-08-19T12:30:13;7.30;;;1.73;;
29700;SDS011;57917;51.380;-0.176;2022-08-19T12:36:05;3.05;;;1.08;;
29700;SDS011;57917;51.380;-0.176;2022-08-19T12:42:01;8.88;;;1.40;;
29700;SDS011;57917;51.380;-0.176;2022-08-19T12:47:54;2.75;;;0.88;;
29700;SDS011;57917;51.380;-0.176;2022-08-19T12:53:44;9.43;;;0.95;;
29700;SDS011;57917;51.380;-0.176;2022-08-19T12:59:31;5.70;;;1.08;;
29700;SDS011;57917;51.380;-0.176;2022-08-19T13:05:22;4.40;;;1.17;;
29700;SDS011;57917;51.380;-0.176;2022-08-19T13:11:11;5.55;;;1.30;;
29700;SDS011;57917;51.380;-0.176;2022-08-19T13:17:00;4.50;;;1.20;;
29700;SDS011;57917;51.380;-0.176;2022-08-19T13:22:48;4.03;;;1.20;;
29700;SDS011;57917;51.380;-0.176;2022-08-19T13:28:35;7.63;;;1.15;;
29700;SDS011;57917;51.380;-0.176;2022-08-19T13:34:40;3.42;;;0.90;;
29700;SDS011;57917;51.380;-0.176;2022-08-19T13:40:27;6.60;;;1.30;;
29700;SDS011;57917;51.380;-0.176;2022-08-19T13:46:15;3.45;;;1.08;;
29700;SDS011;57917;51.380;-0.176;2022-08-19T13:52:08;6.03;;;1.20;;
29700;SDS011;57917;51.380;-0.176;2022-08-19T13:58:08;5.15;;;0.82;;
29700;SDS011;57917;51.380;-0.176;2022-08-19T14:04:15;5.10;;;1.30;;
29700;SDS011;57917;51.380;-0.176;2022-08-19T14:10:59;7.13;;;1.30;;
29700;SDS011;57917;51.380;-0.176;2022-08-19T14:23:49;4.05;;;1.10;;
29700;SDS011;57917;51.380;-0.176;2022-08-19T14:30:00;4.90;;;0.80;;
29700;SDS011;57917;51.380;-0.176;2022-08-19T14:35:51;6.88;;;1.27;;
29700;SDS011;57917;51.380;-0.176;2022-08-19T14:42:19;6.25;;;1.02;;
29700;SDS011;57917;51.380;-0.176;2022-08-19T14:48:07;3.97;;;0.80;;
29700;SDS011;57917;51.380;-0.176;2022-08-19T14:54:15;3.85;;;0.95;;
29700;SDS011;57917;51.380;-0.176;2022-08-19T15:00:29;7.13;;;1.13;;
29700;SDS011;57917;51.380;-0.176;2022-08-19T15:06:46;8.55;;;1.02;;
29700;SDS011;57917;51.380;-0.176;2022-08-19T15:12:49;8.25;;;1.08;;
29700;SDS011;57917;51.380;-0.176;2022-08-19T15:18:45;3.72;;;0.75;;
29700;SDS011;57917;51.380;-0.176;2022-08-19T15:24:48;3.42;;;0.80;;
29700;SDS011;57917;51.380;-0.176;2022-08-19T15:30:56;2.22;;;0.60;;
29700;SDS011;57917;51.380;-0.176;2022-08-19T15:36:49;6.78;;;1.17;;
29700;SDS011;57917;51.380;-0.176;2022-08-19T15:43:10;5.55;;;0.82;;
29700;SDS011;57917;51.380;-0.176;2022-08-19T15:56:31;6.43;;;0.90;;
29700;SDS011;57917;51.380;-0.176;2022-08-19T16:02:54;4.70;;;0.80;;
29700;SDS011;57917;51.380;-0.176;2022-08-19T16:09:01;8.50;;;1.75;;
29700;SDS011;57917;51.380;-0.176;2022-08-19T16:15:21;4.32;;;0.82;;
29700;SDS011;57917;51.380;-0.176;2022-08-19T16:28:04;4.38;;;1.40;;
29700;SDS011;57917;51.380;-0.176;2022-08-19T16:34:41;5.07;;;1.20;;
29700;SDS011;57917;51.380;-0.176;2022-08-19T16:40:47;3.75;;;1.10;;
29700;SDS011;57917;51.380;-0.176;2022-08-19T16:47:00;14.02;;;1.42;;
29700;SDS011;57917;51.380;-0.176;2022-08-19T16:52:59;7.25;;;1.75;;
29700;SDS011;57917;51.380;-0.176;2022-08-19T17:04:37;4.60;;;1.27;;
29700;SDS011;57917;51.380;-0.176;2022-08-19T17:10:29;7.32;;;1.30;;
29700;SDS011;57917;51.380;-0.176;2022-08-19T17:16:26;3.70;;;1.17;;
29700;SDS011;57917;51.380;-0.176;2022-08-19T17:22:28;9.23;;;1.85;;
29700;SDS011;57917;51.380;-0.176;2022-08-19T17:28:33;5.40;;;1.10;;
29700;SDS011;57917;51.380;-0.176;2022-08-19T17:34:26;3.85;;;1.20;;
29700;SDS011;57917;51.380;-0.176;2022-08-19T17:40:14;14.30;;;1.90;;
29700;SDS011;57917;51.380;-0.176;2022-08-19T17:46:16;6.22;;;1.45;;
29700;SDS011;57917;51.380;-0.176;2022-08-19T17:52:06;6.35;;;1.17;;
29700;SDS011;57917;51.380;-0.176;2022-08-19T17:58:02;14.27;;;1.70;;
29700;SDS011;57917;51.380;-0.176;2022-08-19T18:04:21;9.20;;;1.93;;
29700;SDS011;57917;51.380;-0.176;2022-08-19T18:10:13;9.35;;;1.45;;
29700;SDS011;57917;51.380;-0.176;2022-08-19T18:16:08;5.63;;;1.23;;
29700;SDS011;57917;51.380;-0.176;2022-08-19T18:21:58;2.88;;;1.25;;
29700;SDS011;57917;51.380;-0.176;2022-08-19T18:27:50;3.97;;;1.20;;
29700;SDS011;57917;51.380;-0.176;2022-08-19T18:34:20;4.85;;;1.20;;
29700;SDS011;57917;51.380;-0.176;2022-08-19T18:40:22;4.82;;;1.17;;
29700;SDS011;57917;51.380;-0.176;2022-08-19T18:46:31;6.85;;;1.40;;
29700;SDS011;57917;51.380;-0.176;2022-08-19T18:52:47;10.40;;;1.67;;
29700;SDS011;57917;51.380;-0.176;2022-08-19T18:58:37;12.07;;;1.95;;
29700;SDS011;57917;51.380;-0.176;2022-08-19T19:04:28;14.18;;;2.45;;
29700;SDS011;57917;51.380;-0.176;2022-08-19T19:10:18;6.90;;;1.92;;
29700;SDS011;57917;51.380;-0.176;2022-08-19T19:16:05;10.18;;;2.17;;
29700;SDS011;57917;51.380;-0.176;2022-08-19T19:21:56;9.98;;;1.88;;
29700;SDS011;57917;51.380;-0.176;2022-08-19T19:27:43;4.50;;;1.15;;
29700;SDS011;57917;51.380;-0.176;2022-08-19T19:33:31;8.13;;;2.08;;
29700;SDS011;57917;51.380;-0.176;2022-08-19T19:39:19;4.50;;;1.33;;
29700;SDS011;57917;51.380;-0.176;2022-08-19T19:45:28;7.60;;;2.70;;
29700;SDS011;57917;51.380;-0.176;2022-08-19T19:51:15;6.45;;;1.67;;
29700;SDS011;57917;51.380;-0.176;2022-08-19T19:57:06;6.05;;;1.30;;
29700;SDS011;57917;51.380;-0.176;2022-08-19T20:02:53;7.15;;;1.10;;
29700;SDS011;57917;51.380;-0.176;2022-08-19T20:08:45;8.68;;;2.13;;
29700;SDS011;57917;51.380;-0.176;2022-08-19T20:14:51;6.53;;;1.55;;
29700;SDS011;57917;51.380;-0.176;2022-08-19T20:20:40;8.45;;;1.50;;
29700;SDS011;57917;51.380;-0.176;2022-08-19T20:26:45;4.63;;;1.00;;
29700;SDS011;57917;51.380;-0.176;2022-08-19T20:32:39;7.03;;;1.88;;
29700;SDS011;57917;51.380;-0.176;2022-08-19T20:38:28;8.50;;;3.03;;
29700;SDS011;57917;51.380;-0.176;2022-08-19T20:44:16;5.60;;;1.33;;
29700;SDS011;57917;51.380;-0.176;2022-08-19T20:50:06;6.85;;;1.02;;
29700;SDS011;57917;51.380;-0.176;2022-08-19T20:56:14;4.32;;;1.00;;
29700;SDS011;57917;51.380;-0.176;2022-08-19T21:02:07;9.38;;;1.60;;
29700;SDS011;57917;51.380;-0.176;2022-08-19T21:08:03;9.68;;;1.10;;
29700;SDS011;57917;51.380;-0.176;2022-08-19T21:13:50;4.72;;;1.40;;
29700;SDS011;57917;51.380;-0.176;2022-08-19T21:19:37;5.63;;;1.17;;
29700;SDS011;57917;51.380;-0.176;2022-08-19T21:25:24;4.68;;;1.17;;
29700;SDS011;57917;51.380;-0.176;2022-08-19T21:31:11;2.90;;;0.90;;
29700;SDS011;57917;51.380;-0.176;2022-08-19T21:37:00;4.07;;;1.13;;
29700;SDS011;57917;51.380;-0.176;2022-08-19T21:42:47;2.10;;;0.95;;
29700;SDS011;57917;51.380;-0.176;2022-08-19T21:48:34;2.47;;;0.93;;
29700;SDS011;57917;51.380;-0.176;2022-08-19T21:54:24;2.97;;;1.30;;
29700;SDS011;57917;51.380;-0.176;2022-08-19T22:00:22;4.25;;;1.17;;
29700;SDS011;57917;51.380;-0.176;2022-08-19T22:06:10;8.65;;;1.30;;
29700;SDS011;57917;51.380;-0.176;2022-08-19T22:11:57;3.90;;;1.33;;
29700;SDS011;57917;51.380;-0.176;2022-08-19T22:17:44;2.88;;;1.02;;
29700;SDS011;57917;51.380;-0.176;2022-08-19T22:23:37;2.08;;;0.77;;
29700;SDS011;57917;51.380;-0.176;2022-08-19T22:29:24;3.80;;;1.10;;
29700;SDS011;57917;51.380;-0.176;2022-08-19T22:35:20;7.78;;;0.93;;
29700;SDS011;57917;51.380;-0.176;2022-08-19T22:41:08;7.50;;;1.27;;
29700;SDS011;57917;51.380;-0.176;2022-08-19T22:46:55;4.60;;;1.00;;
29700;SDS011;57917;51.380;-0.176;2022-08-19T22:52:42;4.45;;;1.02;;
29700;SDS011;57917;51.380;-0.176;2022-08-19T22:58:37;5.30;;;1.20;;
29700;SDS011;57917;51.380;-0.176;2022-08-19T23:04:25;5.20;;;1.23;;
29700;SDS011;57917;51.380;-0.176;2022-08-19T23:10:13;9.75;;;0.95;;
29700;SDS011;57917;51.380;-0.176;2022-08-19T23:16:12;2.72;;;1.02;;
29700;SDS011;57917;51.380;-0.176;2022-08-19T23:27:52;4.22;;;1.08;;
29700;SDS011;57917;51.380;-0.176;2022-08-19T23:33:58;6.15;;;1.17;;
29700;SDS011;57917;51.380;-0.176;2022-08-19T23:39:49;5.70;;;0.95;;
29700;SDS011;57917;51.380;-0.176;2022-08-19T23:45:38;4.03;;;1.02;;
29700;SDS011;57917;51.380;-0.176;2022-08-19T23:51:36;4.07;;;0.98;;
29700;SDS011;57917;51.380;-0.176;2022-08-19T23:57:32;2.33;;;0.80;;
